createdAt,value
2022-08-17T00:04:02.097Z,71.84
2022-08-17T00:08:10.020Z,72.23
2022-08-17T00:12:43.787Z,72.89
2022-08-17T00:16:56.156Z,73.15
2022-08-17T00:21:10.579Z,73.16
2022-08-17T00:25:21.230Z,73.18
2022-08-17T00:29:29.206Z,72.93
2022-08-17T00:33:37.790Z,72.89
2022-08-17T00:37:45.318Z,72.95
2022-08-17T00:41:53.492Z,72.74
2022-08-17T00:46:04.021Z,72.79
2022-08-17T00:50:16.130Z,73.13
2022-08-17T00:54:27.152Z,73.24
2022-08-17T00:58:36.790Z,73.06
2022-08-17T01:02:47.605Z,73.14
2022-08-17T01:06:56.500Z,73.18
2022-08-17T01:11:05.816Z,73.38
2022-08-17T01:15:14.200Z,73.56
2022-08-17T01:19:25.434Z,73.53
2022-08-17T01:23:33.526Z,73.57
2022-08-17T01:27:41.979Z,73.82
2022-08-17T01:31:54.358Z,73.71
2022-08-17T01:36:03.824Z,73.58
2022-08-17T01:40:17.593Z,73.53
2022-08-17T01:44:26.891Z,73.38
2022-08-17T01:48:36.637Z,73.41
2022-08-17T01:52:44.918Z,73.37
2022-08-17T01:56:53.512Z,73.38
2022-08-17T02:01:01.761Z,73.53
2022-08-17T02:05:11.265Z,73.76
2022-08-17T02:09:23.362Z,73.96
2022-08-17T02:13:33.918Z,74.12
2022-08-17T02:17:41.904Z,74.13
2022-08-17T02:21:52.232Z,74.17
2022-08-17T02:26:01.410Z,74.06
2022-08-17T02:31:01.382Z,74.11
2022-08-17T02:35:03.604Z,74.00
2022-08-17T02:39:13.106Z,73.92
2022-08-17T02:43:21.194Z,73.84
2022-08-17T02:47:29.382Z,73.95
2022-08-17T02:51:36.886Z,74.04
2022-08-17T02:55:45.528Z,74.06
2022-08-17T02:59:53.220Z,74.03
2022-08-17T03:04:00.986Z,74.04
2022-08-17T03:08:13.234Z,74.16
2022-08-17T03:12:21.239Z,74.05
2022-08-17T03:16:31.616Z,74.09
2022-08-17T03:20:39.553Z,74.14
2022-08-17T03:24:47.383Z,74.21
2022-08-17T03:28:55.899Z,74.30
2022-08-17T03:33:06.869Z,74.59
2022-08-17T03:37:14.662Z,74.74
2022-08-17T03:41:22.602Z,74.95
2022-08-17T03:45:48.808Z,75.11
2022-08-17T03:50:18.234Z,75.11
2022-08-17T03:54:43.554Z,75.05
2022-08-17T03:58:51.788Z,75.18
2022-08-17T04:03:00.483Z,75.12
2022-08-17T04:07:09.270Z,75.19
2022-08-17T04:11:16.675Z,75.17
2022-08-17T04:15:24.993Z,75.21
2022-08-17T04:19:32.897Z,75.23
2022-08-17T04:23:40.787Z,75.31
2022-08-17T04:27:49.354Z,75.43
2022-08-17T04:31:58.498Z,75.54
2022-08-17T04:36:08.976Z,75.86
2022-08-17T04:40:37.851Z,75.92
2022-08-17T04:44:46.269Z,75.91
2022-08-17T04:48:56.832Z,75.89
2022-08-17T04:53:05.479Z,75.82
2022-08-17T04:57:12.969Z,75.79
2022-08-17T05:01:23.938Z,75.66
2022-08-17T05:05:33.695Z,75.68
2022-08-17T05:09:41.246Z,75.68
2022-08-17T05:13:50.434Z,75.75
2022-08-17T05:17:58.592Z,75.74
2022-08-17T05:22:09.190Z,75.56
2022-08-17T05:26:20.477Z,75.34
2022-08-17T05:30:35.196Z,75.27
2022-08-17T05:34:43.027Z,75.92
2022-08-17T05:38:50.947Z,75.55
2022-08-17T05:43:10.083Z,75.61
2022-08-17T05:47:18.088Z,74.57
2022-08-17T05:51:43.560Z,73.62
2022-08-17T05:55:55.323Z,72.19
2022-08-17T06:00:10.031Z,71.33
2022-08-17T06:04:23.414Z,70.75
2022-08-17T06:08:35.979Z,69.98
2022-08-17T06:12:55.650Z,69.01
2022-08-17T06:17:06.476Z,67.75
2022-08-17T06:21:19.026Z,67.10
2022-08-17T06:25:35.714Z,66.88
2022-08-17T06:29:46.625Z,65.79
2022-08-17T06:33:54.530Z,64.72
2022-08-17T06:38:36.929Z,63.18
2022-08-17T06:43:06.651Z,62.67
2022-08-17T06:47:28.578Z,61.55
2022-08-17T06:51:40.799Z,62.12
2022-08-17T06:55:51.908Z,62.00
2022-08-17T07:00:01.400Z,60.87
2022-08-17T07:04:12.562Z,60.25
2022-08-17T07:08:29.677Z,59.38
2022-08-17T07:12:42.758Z,59.35
2022-08-17T07:16:52.970Z,59.19
2022-08-17T07:21:04.491Z,57.93
2022-08-17T07:25:18.659Z,57.47
2022-08-17T07:29:28.953Z,56.89
2022-08-17T07:33:39.411Z,55.64
2022-08-17T07:37:54.559Z,54.95
2022-08-17T07:42:07.798Z,54.43
2022-08-17T07:46:39.100Z,53.98
2022-08-17T07:50:49.597Z,53.63
2022-08-17T07:54:59.414Z,53.60
2022-08-17T07:59:23.214Z,53.50
2022-08-17T08:03:34.466Z,52.66
2022-08-17T08:07:51.342Z,52.85
2022-08-17T08:12:00.245Z,51.62
2022-08-17T08:16:25.599Z,51.01
2022-08-17T08:20:51.943Z,49.83
2022-08-17T08:25:09.622Z,50.04
2022-08-17T08:29:28.487Z,49.69
2022-08-17T08:33:46.097Z,49.39
2022-08-17T08:38:01.487Z,49.17
2022-08-17T08:42:14.843Z,48.67
2022-08-17T08:46:29.691Z,47.28
2022-08-17T08:50:46.141Z,47.08
2022-08-17T08:54:58.041Z,46.15
2022-08-17T08:59:14.535Z,47.07
2022-08-17T09:03:51.850Z,47.21
2022-08-17T09:08:15.243Z,47.42
2022-08-17T09:12:29.972Z,47.39
2022-08-17T09:16:42.571Z,47.56
2022-08-17T09:20:53.916Z,47.04
2022-08-17T09:25:07.106Z,46.31
2022-08-17T09:29:18.521Z,46.69
2022-08-17T09:33:28.500Z,46.47
2022-08-17T09:37:41.686Z,44.88
2022-08-17T09:41:53.771Z,43.42
2022-08-17T09:46:04.490Z,42.05
2022-08-17T09:50:17.030Z,41.76
2022-08-17T09:54:44.500Z,40.82
2022-08-17T09:59:08.950Z,41.26
2022-08-17T10:03:34.966Z,41.99
2022-08-17T10:07:46.944Z,41.88
2022-08-17T10:12:17.342Z,42.23
2022-08-17T10:16:35.779Z,41.74
2022-08-17T10:20:51.375Z,41.12
2022-08-17T10:25:23.739Z,40.62
2022-08-17T10:29:47.494Z,40.11
2022-08-17T10:34:07.113Z,38.33
2022-08-17T10:38:41.636Z,38.10
2022-08-17T10:42:59.334Z,39.23
2022-08-17T10:47:11.559Z,38.91
2022-08-17T10:51:39.405Z,38.88
2022-08-17T10:56:24.448Z,37.58
2022-08-17T11:01:13.011Z,37.04
2022-08-17T11:05:38.953Z,36.45
2022-08-17T11:10:19.021Z,37.05
2022-08-17T11:14:41.445Z,37.42
2022-08-17T11:19:15.829Z,36.64
2022-08-17T11:23:32.620Z,36.74
2022-08-17T11:27:40.663Z,36.19
2022-08-17T11:32:02.593Z,35.15
2022-08-17T11:36:18.368Z,34.56
2022-08-17T11:40:41.252Z,33.73
2022-08-17T11:44:54.904Z,32.85
2022-08-17T11:49:26.748Z,33.88
2022-08-17T11:58:45.110Z,33.09
2022-08-17T12:03:23.719Z,33.02
2022-08-17T12:07:33.415Z,33.50
2022-08-17T12:12:10.950Z,33.50
2022-08-17T12:16:19.368Z,33.36
2022-08-17T12:20:30.172Z,33.32
2022-08-17T12:24:47.372Z,33.40
2022-08-17T12:28:58.522Z,32.38
2022-08-17T12:33:25.000Z,32.66
2022-08-17T12:37:36.495Z,33.21
2022-08-17T12:41:47.144Z,32.26
2022-08-17T12:46:01.214Z,33.26
2022-08-17T12:50:29.638Z,32.81
2022-08-17T12:54:43.198Z,32.35
2022-08-17T12:58:53.800Z,32.30
2022-08-17T13:03:06.266Z,33.10
2022-08-17T13:07:14.771Z,32.59
2022-08-17T13:11:25.506Z,32.80
2022-08-17T13:15:37.154Z,32.53
2022-08-17T13:19:51.273Z,32.36
2022-08-17T13:24:02.176Z,30.46
2022-08-17T13:28:35.446Z,30.56
2022-08-17T13:32:47.426Z,30.90
2022-08-17T13:37:35.335Z,30.70
2022-08-17T13:41:43.385Z,31.01
2022-08-17T13:45:53.302Z,30.81
2022-08-17T13:50:01.166Z,29.96
2022-08-17T13:54:21.151Z,30.98
2022-08-17T13:58:30.562Z,31.20
2022-08-17T14:02:38.988Z,31.28
2022-08-17T14:06:53.990Z,30.14
2022-08-17T14:11:02.407Z,29.96
2022-08-17T14:15:12.282Z,29.31
2022-08-17T14:19:22.053Z,28.88
2022-08-17T14:23:33.151Z,29.37
2022-08-17T14:27:51.970Z,30.49
2022-08-17T14:32:06.707Z,30.17
2022-08-17T14:36:15.968Z,29.93
2022-08-17T14:40:25.801Z,29.64
2022-08-17T14:44:33.830Z,30.27
2022-08-17T14:48:41.813Z,30.37
2022-08-17T14:52:49.977Z,30.70
2022-08-17T14:57:22.247Z,30.79
2022-08-17T15:01:26.420Z,31.56
2022-08-17T15:05:37.116Z,31.88
2022-08-17T15:09:46.154Z,31.29
2022-08-17T15:13:57.218Z,31.41
2022-08-17T15:18:05.153Z,32.24
2022-08-17T15:22:25.238Z,32.41
2022-08-17T15:26:33.368Z,32.12
2022-08-17T15:30:43.653Z,32.83
2022-08-17T15:34:51.539Z,33.00
2022-08-17T15:39:00.189Z,32.51
2022-08-17T15:43:11.545Z,32.67
2022-08-17T15:47:20.602Z,32.94
2022-08-17T15:51:31.014Z,33.45
2022-08-17T15:55:39.749Z,33.38
2022-08-17T15:59:47.407Z,33.52
2022-08-17T16:04:06.563Z,33.85
2022-08-17T16:08:20.717Z,33.86
2022-08-17T16:12:29.376Z,33.83
2022-08-17T16:16:37.088Z,33.53
2022-08-17T16:20:45.184Z,33.59
2022-08-17T16:24:57.377Z,34.11
2022-08-17T16:29:07.680Z,34.24
2022-08-17T16:33:17.201Z,34.68
2022-08-17T16:37:25.454Z,35.23
2022-08-17T16:41:46.061Z,35.71
2022-08-17T16:45:55.142Z,36.11
2022-08-17T16:50:04.855Z,36.38
2022-08-17T16:54:17.575Z,36.73
2022-08-17T16:58:25.571Z,37.04
2022-08-17T17:02:35.076Z,37.86
2022-08-17T17:06:48.407Z,39.72
2022-08-17T17:10:58.275Z,41.75
2022-08-17T17:15:10.536Z,42.59
2022-08-17T17:19:34.289Z,42.50
2022-08-17T17:23:53.984Z,44.15
2022-08-17T17:28:07.232Z,45.79
2022-08-17T17:32:22.289Z,46.61
2022-08-17T17:36:34.426Z,47.04
2022-08-17T17:40:44.370Z,47.44
2022-08-17T17:44:55.059Z,47.78
2022-08-17T17:49:04.095Z,48.13
2022-08-17T17:53:17.076Z,48.04
2022-08-17T17:57:39.291Z,48.31
2022-08-17T18:01:55.140Z,48.82
2022-08-17T18:06:21.701Z,49.07
2022-08-17T18:10:35.287Z,49.18
2022-08-17T18:14:58.301Z,49.83
2022-08-17T18:19:06.880Z,50.07
2022-08-17T18:23:15.721Z,49.18
2022-08-17T18:27:27.766Z,50.17
2022-08-17T18:31:35.498Z,50.91
2022-08-17T18:35:59.335Z,51.41
2022-08-17T18:40:34.627Z,51.84
2022-08-17T18:44:49.597Z,51.45
2022-08-17T18:49:01.354Z,51.77
2022-08-17T18:53:26.624Z,53.00
2022-08-17T18:57:39.780Z,53.88
2022-08-17T19:02:15.984Z,54.51
2022-08-17T19:06:32.198Z,55.17
2022-08-17T19:10:46.238Z,55.51
2022-08-17T19:14:57.044Z,55.92
2022-08-17T19:19:09.519Z,55.93
2022-08-17T19:23:20.077Z,56.34
2022-08-17T19:27:41.961Z,56.91
2022-08-17T19:31:56.346Z,56.92
2022-08-17T19:36:10.331Z,56.89
2022-08-17T19:40:51.090Z,57.40
2022-08-17T19:44:59.418Z,58.06
2022-08-17T19:49:11.626Z,58.55
2022-08-17T19:53:36.861Z,58.90
2022-08-17T19:58:03.927Z,58.64
2022-08-17T20:02:32.127Z,58.07
2022-08-17T20:06:43.039Z,58.28
2022-08-17T20:10:55.376Z,58.38
2022-08-17T20:15:09.536Z,58.37
2022-08-17T20:19:24.739Z,58.65
2022-08-17T20:23:46.358Z,58.75
2022-08-17T20:28:05.568Z,58.91
2022-08-17T20:32:27.479Z,59.34
2022-08-17T20:36:37.059Z,59.80
2022-08-17T20:41:15.397Z,60.00
2022-08-17T20:45:52.900Z,60.47
2022-08-17T20:50:03.495Z,61.08
2022-08-17T20:54:44.539Z,61.38
2022-08-17T20:58:52.478Z,61.92
2022-08-17T21:03:51.070Z,61.95
2022-08-17T21:08:02.224Z,61.98
2022-08-17T21:12:11.597Z,61.02
2022-08-17T21:16:34.930Z,61.10
2022-08-17T21:20:50.199Z,61.42
2022-08-17T21:25:03.501Z,61.68
2022-08-17T21:29:31.827Z,61.96
2022-08-17T21:33:42.078Z,62.26
2022-08-17T21:37:50.650Z,62.45
2022-08-17T21:42:00.245Z,62.56
2022-08-17T21:46:11.850Z,62.61
2022-08-17T21:50:22.528Z,63.01
2022-08-17T21:54:37.004Z,63.11
2022-08-17T21:58:48.694Z,63.32
2022-08-17T22:03:01.763Z,63.23
2022-08-17T22:07:14.870Z,63.60
2022-08-17T22:11:22.660Z,63.32
2022-08-17T22:15:30.190Z,63.68
2022-08-17T22:19:38.337Z,64.29
2022-08-17T22:24:05.715Z,64.30
2022-08-17T22:28:14.989Z,64.59
2022-08-17T22:32:45.095Z,64.62
2022-08-17T22:36:53.820Z,64.68
2022-08-17T22:41:37.795Z,65.04
2022-08-17T22:45:54.631Z,65.26
2022-08-17T22:50:04.420Z,65.52
2022-08-17T22:54:37.055Z,65.71
2022-08-17T22:59:09.311Z,66.05
2022-08-17T23:03:20.121Z,66.32
2022-08-17T23:07:28.218Z,66.37
2022-08-17T23:11:49.109Z,66.22
2022-08-17T23:15:58.165Z,66.26
2022-08-17T23:20:08.691Z,66.56
2022-08-17T23:24:19.350Z,67.00
2022-08-17T23:28:28.734Z,67.37
2022-08-17T23:32:53.327Z,67.77
2022-08-17T23:37:04.533Z,68.11
2022-08-17T23:41:15.510Z,68.40
2022-08-17T23:45:24.162Z,68.61
2022-08-17T23:49:31.858Z,68.87
2022-08-17T23:53:42.429Z,69.03
2022-08-17T23:57:50.863Z,68.99
